createdAt,value
2023-02-14T00:01:14.225Z,88.50
2023-02-14T00:03:42.113Z,93.50
2023-02-14T00:06:12.051Z,91.90
2023-02-14T00:08:41.127Z,92.00
2023-02-14T00:11:12.948Z,90.10
2023-02-14T00:14:09.780Z,90.70
2023-02-14T00:16:39.993Z,93.70
2023-02-14T00:19:14.957Z,91.90
2023-02-14T00:21:43.300Z,95.00
2023-02-14T00:24:13.370Z,95.50
2023-02-14T00:26:44.662Z,93.40
2023-02-14T00:29:16.099Z,94.60
2023-02-14T00:31:48.940Z,94.30
2023-02-14T00:34:20.594Z,94.30
2023-02-14T00:36:49.017Z,95.10
2023-02-14T00:39:25.856Z,95.00
2023-02-14T00:41:53.699Z,93.90
2023-02-14T00:44:33.667Z,94.10
2023-02-14T00:47:19.144Z,94.60
2023-02-14T00:49:46.990Z,92.30
2023-02-14T00:52:23.600Z,93.90
2023-02-14T00:54:53.839Z,92.80
2023-02-14T00:57:23.903Z,92.30
2023-02-14T00:59:53.131Z,90.80
2023-02-14T01:02:27.117Z,88.60
2023-02-14T01:04:57.049Z,90.40
2023-02-14T01:07:30.495Z,94.10
2023-02-14T01:10:00.550Z,95.40
2023-02-14T01:12:28.419Z,93.40
2023-02-14T01:14:57.687Z,93.70
2023-02-14T01:17:27.753Z,94.30
2023-02-14T01:19:58.814Z,95.10
2023-02-14T01:22:29.416Z,95.60
2023-02-14T01:25:02.430Z,95.70
2023-02-14T01:27:33.232Z,95.50
2023-02-14T01:30:20.527Z,94.90
2023-02-14T01:32:48.589Z,94.90
2023-02-14T01:35:19.594Z,94.90
2023-02-14T01:37:50.495Z,94.40
2023-02-14T01:40:19.220Z,95.20
2023-02-14T01:42:52.220Z,95.30
2023-02-14T01:45:29.766Z,95.00
2023-02-14T01:48:03.674Z,94.10
2023-02-14T01:50:40.628Z,94.60
2023-02-14T01:53:12.394Z,94.60
2023-02-14T01:55:45.240Z,95.40
2023-02-14T01:58:26.166Z,95.40
2023-02-14T02:01:31.367Z,95.10
2023-02-14T02:04:07.276Z,95.10
2023-02-14T02:06:54.314Z,95.30
2023-02-14T02:09:33.844Z,95.60
2023-02-14T02:12:04.458Z,95.30
2023-02-14T02:14:33.137Z,95.30
2023-02-14T02:17:33.487Z,95.20
2023-02-14T02:20:55.409Z,95.20
2023-02-14T02:23:59.694Z,95.10
2023-02-14T02:27:08.767Z,94.90
2023-02-14T02:30:13.489Z,94.70
2023-02-14T02:33:23.970Z,93.70
2023-02-14T02:36:22.235Z,93.50
2023-02-14T02:39:08.516Z,94.80
2023-02-14T02:41:49.505Z,94.10
2023-02-14T02:44:20.965Z,91.50
2023-02-14T02:47:06.836Z,87.40
2023-02-14T02:50:03.694Z,87.40
2023-02-14T02:53:01.545Z,92.50
2023-02-14T02:56:06.098Z,92.30
2023-02-14T02:58:37.359Z,88.70
2023-02-14T03:01:12.595Z,89.90
2023-02-14T03:04:04.884Z,91.50
2023-02-14T03:06:41.977Z,93.60
2023-02-14T03:09:36.003Z,95.30
2023-02-14T03:12:15.514Z,94.90
2023-02-14T03:14:51.122Z,94.60
2023-02-14T03:17:33.158Z,94.80
2023-02-14T03:20:16.498Z,94.90
2023-02-14T03:22:51.408Z,95.70
2023-02-14T03:28:34.298Z,94.00
2023-02-14T03:31:22.135Z,94.70
2023-02-14T03:34:02.286Z,94.40
2023-02-14T03:36:51.418Z,95.20
2023-02-14T03:39:27.666Z,94.20
2023-02-14T03:42:06.644Z,94.20
2023-02-14T03:44:45.152Z,94.80
2023-02-14T03:47:16.041Z,95.20
2023-02-14T03:50:01.839Z,95.40
2023-02-14T03:52:34.900Z,95.10
2023-02-14T03:55:06.300Z,95.00
2023-02-14T03:57:48.659Z,95.10
2023-02-14T04:00:22.992Z,95.10
2023-02-14T04:02:59.437Z,95.00
2023-02-14T04:05:29.144Z,94.80
2023-02-14T04:08:00.618Z,94.80
2023-02-14T04:10:34.816Z,94.70
2023-02-14T04:13:04.118Z,92.40
2023-02-14T04:15:37.366Z,91.50
2023-02-14T04:18:26.565Z,94.20
2023-02-14T04:20:54.446Z,94.60
2023-02-14T04:23:22.363Z,94.70
2023-02-14T04:25:53.248Z,94.70
2023-02-14T04:28:29.750Z,95.10
2023-02-14T04:30:58.045Z,95.30
2023-02-14T04:33:26.111Z,95.10
2023-02-14T04:36:02.909Z,95.00
2023-02-14T04:38:59.787Z,95.00
2023-02-14T04:41:30.431Z,95.00
2023-02-14T04:44:08.752Z,95.10
2023-02-14T04:46:38.722Z,95.00
2023-02-14T04:49:06.589Z,94.90
2023-02-14T04:51:40.508Z,94.80
2023-02-14T04:54:39.878Z,94.80
2023-02-14T04:57:10.620Z,94.90
2023-02-14T04:59:46.125Z,94.80
2023-02-14T05:02:14.034Z,94.70
2023-02-14T05:04:49.731Z,95.00
2023-02-14T05:07:30.181Z,94.80
2023-02-14T05:09:59.616Z,94.80
2023-02-14T05:12:27.547Z,94.80
2023-02-14T05:14:59.240Z,94.10
2023-02-14T05:17:27.156Z,94.00
2023-02-14T05:19:58.055Z,94.60
2023-02-14T05:22:35.253Z,91.70
2023-02-14T05:25:03.217Z,90.80
2023-02-14T05:27:31.160Z,91.70
2023-02-14T05:30:00.463Z,91.80
2023-02-14T05:32:34.126Z,91.80
2023-02-14T05:35:02.059Z,92.10
2023-02-14T05:37:29.896Z,88.40
2023-02-14T05:40:07.414Z,90.50
2023-02-14T05:42:35.271Z,92.70
2023-02-14T05:45:04.613Z,94.30
2023-02-14T05:47:32.578Z,91.60
2023-02-14T05:50:03.564Z,91.70
2023-02-14T05:52:33.980Z,92.20
2023-02-14T05:55:01.840Z,92.90
2023-02-14T05:57:29.704Z,94.00
2023-02-14T05:59:57.685Z,93.80
2023-02-14T06:02:27.141Z,88.20
2023-02-14T06:04:55.076Z,85.30
2023-02-14T06:07:25.777Z,84.10
2023-02-14T06:09:59.527Z,85.60
2023-02-14T06:12:27.415Z,89.00
2023-02-14T06:15:04.416Z,87.70
2023-02-14T06:17:36.746Z,85.50
2023-02-14T06:20:10.469Z,90.10
2023-02-14T06:22:39.012Z,91.30
2023-02-14T06:25:09.675Z,90.20
2023-02-14T06:27:37.551Z,90.20
2023-02-14T06:30:06.491Z,93.90
2023-02-14T06:32:35.715Z,94.60
2023-02-14T06:35:04.406Z,92.20
2023-02-14T06:37:32.307Z,94.50
2023-02-14T06:40:03.070Z,95.50
2023-02-14T06:42:30.939Z,94.60
2023-02-14T06:45:02.451Z,93.80
2023-02-14T06:47:37.844Z,94.30
2023-02-14T06:50:12.588Z,95.20
2023-02-14T06:52:42.037Z,94.60
2023-02-14T06:55:11.699Z,94.60
2023-02-14T06:57:40.178Z,95.00
2023-02-14T07:00:09.987Z,95.20
2023-02-14T07:02:37.971Z,95.10
2023-02-14T07:05:07.553Z,92.40
2023-02-14T07:07:35.420Z,92.30
2023-02-14T07:10:10.466Z,92.10
2023-02-14T07:12:39.480Z,89.60
2023-02-14T07:15:08.253Z,84.20
2023-02-14T07:17:39.675Z,92.30
2023-02-14T07:20:10.811Z,93.50
2023-02-14T07:22:39.223Z,93.50
2023-02-14T07:25:10.505Z,93.40
2023-02-14T07:27:40.813Z,93.20
2023-02-14T07:30:11.713Z,92.30
2023-02-14T07:32:45.008Z,87.30
2023-02-14T07:35:37.908Z,83.00
2023-02-14T07:38:08.313Z,82.50
2023-02-14T07:40:36.166Z,84.00
2023-02-14T07:43:07.958Z,85.10
2023-02-14T07:45:35.885Z,86.60
2023-02-14T07:48:04.195Z,87.70
2023-02-14T07:50:33.405Z,85.90
2023-02-14T07:53:01.274Z,87.20
2023-02-14T07:55:35.633Z,86.40
2023-02-14T07:58:03.601Z,90.50
2023-02-14T08:00:33.913Z,91.00
2023-02-14T08:03:01.820Z,91.20
2023-02-14T08:05:34.132Z,91.40
2023-02-14T08:08:04.989Z,91.60
2023-02-14T08:10:32.871Z,87.10
2023-02-14T08:12:59.869Z,92.10
2023-02-14T08:15:49.415Z,91.00
2023-02-14T08:18:18.555Z,87.70
2023-02-14T08:20:51.027Z,88.90
2023-02-14T08:23:20.064Z,90.50
2023-02-14T08:25:52.485Z,92.40
2023-02-14T08:28:23.528Z,92.70
2023-02-14T08:30:51.921Z,94.50
2023-02-14T08:33:19.995Z,93.30
2023-02-14T08:35:52.901Z,94.20
2023-02-14T08:38:20.780Z,94.40
2023-02-14T08:40:54.189Z,92.30
2023-02-14T08:43:22.076Z,92.40
2023-02-14T08:45:53.582Z,95.90
2023-02-14T08:48:23.433Z,97.80
2023-02-14T08:50:52.671Z,99.90
2023-02-14T08:53:29.820Z,99.90
2023-02-14T08:56:12.504Z,99.90
2023-02-14T08:58:47.823Z,98.70
2023-02-14T09:01:21.881Z,98.20
2023-02-14T09:03:52.622Z,99.90
2023-02-14T09:06:21.920Z,99.90
2023-02-14T09:08:49.825Z,98.50
2023-02-14T09:11:21.963Z,95.50
2023-02-14T09:13:51.711Z,95.40
2023-02-14T09:16:26.497Z,96.90
2023-02-14T09:18:56.536Z,96.80
2023-02-14T09:21:28.127Z,99.90
2023-02-14T09:23:56.851Z,99.90
2023-02-14T09:26:30.955Z,99.90
2023-02-14T09:28:58.831Z,99.90
2023-02-14T09:31:27.037Z,97.70
2023-02-14T09:34:12.572Z,98.00
2023-02-14T09:36:59.579Z,97.40
2023-02-14T09:39:32.966Z,96.00
2023-02-14T09:42:37.212Z,97.00
2023-02-14T09:45:13.288Z,96.70
2023-02-14T09:47:47.504Z,99.90
2023-02-14T09:50:21.107Z,99.30
2023-02-14T09:52:53.843Z,99.10
2023-02-14T09:55:21.773Z,97.80
2023-02-14T09:58:08.107Z,97.60
2023-02-14T10:00:39.457Z,97.60
2023-02-14T10:03:22.082Z,99.50
2023-02-14T10:05:58.362Z,99.80
2023-02-14T10:08:48.285Z,97.00
2023-02-14T10:11:20.509Z,96.30
2023-02-14T10:13:56.028Z,98.90
2023-02-14T10:16:33.713Z,95.40
2023-02-14T10:19:08.745Z,98.30
2023-02-14T10:21:41.491Z,97.90
2023-02-14T10:24:20.349Z,99.90
2023-02-14T10:26:51.086Z,97.90
2023-02-14T10:29:20.643Z,98.40
2023-02-14T10:31:57.638Z,99.90
2023-02-14T10:34:40.550Z,99.90
2023-02-14T10:37:35.137Z,99.30
2023-02-14T10:40:28.000Z,99.90
2023-02-14T10:43:04.833Z,99.90
2023-02-14T10:45:42.959Z,99.90
2023-02-14T10:48:23.140Z,99.90
2023-02-14T10:50:57.580Z,97.60
2023-02-14T10:53:34.371Z,95.20
2023-02-14T10:56:06.875Z,97.60
2023-02-14T10:58:40.096Z,96.60
2023-02-14T11:01:11.870Z,98.50
2023-02-14T11:03:44.153Z,98.70
2023-02-14T11:06:27.086Z,93.70
2023-02-14T11:08:57.176Z,96.00
2023-02-14T11:11:31.701Z,95.50
2023-02-14T11:13:59.726Z,95.30
2023-02-14T11:16:36.168Z,91.40
2023-02-14T11:19:22.134Z,95.00
2023-02-14T11:21:52.100Z,94.10
2023-02-14T11:24:36.859Z,95.10
2023-02-14T11:27:21.037Z,95.10
2023-02-14T11:29:53.567Z,92.70
2023-02-14T11:32:24.263Z,95.70
2023-02-14T11:34:58.571Z,92.50
2023-02-14T11:37:28.516Z,91.90
2023-02-14T11:39:58.964Z,96.10
2023-02-14T11:42:45.573Z,99.90
2023-02-14T11:45:33.521Z,99.90
2023-02-14T11:48:24.785Z,99.90
2023-02-14T11:50:58.375Z,99.90
2023-02-14T11:53:28.470Z,99.90
2023-02-14T11:56:00.744Z,99.90
2023-02-14T11:58:36.999Z,99.90
2023-02-14T12:01:12.352Z,98.40
2023-02-14T12:03:48.451Z,99.90
2023-02-14T12:06:25.279Z,99.90
2023-02-14T12:09:13.413Z,94.10
2023-02-14T12:11:54.858Z,99.90
2023-02-14T12:14:26.064Z,97.30
2023-02-14T12:17:03.925Z,91.40
2023-02-14T12:19:43.901Z,93.90
2023-02-14T12:22:17.193Z,96.20
2023-02-14T12:25:04.584Z,95.60
2023-02-14T12:27:39.871Z,96.80
2023-02-14T12:30:15.662Z,92.00
2023-02-14T12:32:49.446Z,95.10
2023-02-14T12:35:31.085Z,92.00
2023-02-14T12:38:09.939Z,97.30
2023-02-14T12:40:50.333Z,98.50
2023-02-14T12:43:50.579Z,95.70
2023-02-14T12:46:44.496Z,94.90
2023-02-14T12:49:36.669Z,93.40
2023-02-14T12:52:21.339Z,93.00
2023-02-14T12:55:19.650Z,92.90
2023-02-14T12:57:57.175Z,93.40
2023-02-14T13:00:49.881Z,93.50
2023-02-14T13:03:41.185Z,88.50
2023-02-14T13:06:17.085Z,86.00
2023-02-14T13:09:01.480Z,86.80
2023-02-14T13:11:40.620Z,93.10
2023-02-14T13:14:31.515Z,89.70
2023-02-14T13:17:06.307Z,92.20
2023-02-14T13:19:50.806Z,90.40
2023-02-14T13:22:24.739Z,92.70
2023-02-14T13:25:00.921Z,94.70
2023-02-14T13:27:32.984Z,95.00
2023-02-14T13:30:07.687Z,96.60
2023-02-14T13:32:48.791Z,95.20
2023-02-14T13:35:23.001Z,95.70
2023-02-14T13:38:05.921Z,90.80
2023-02-14T13:40:37.734Z,96.10
2023-02-14T13:43:06.046Z,96.10
2023-02-14T13:45:56.189Z,96.30
2023-02-14T13:48:27.358Z,92.50
2023-02-14T13:50:59.658Z,94.50
2023-02-14T13:53:41.700Z,97.50
2023-02-14T13:56:33.430Z,99.80
2023-02-14T13:59:05.560Z,99.80
2023-02-14T14:01:40.487Z,99.90
2023-02-14T14:04:37.368Z,98.60
2023-02-14T14:07:23.120Z,98.20
2023-02-14T14:10:12.018Z,99.50
2023-02-14T14:12:52.002Z,99.80
2023-02-14T14:15:28.273Z,99.90
2023-02-14T14:18:38.474Z,98.40
2023-02-14T14:21:25.226Z,96.80
2023-02-14T14:24:22.439Z,99.40
2023-02-14T14:27:14.992Z,99.90
2023-02-14T14:29:51.271Z,99.90
2023-02-14T14:32:27.777Z,98.50
2023-02-14T14:35:00.453Z,98.40
2023-02-14T14:37:30.265Z,96.90
2023-02-14T14:40:09.542Z,99.20
2023-02-14T14:42:41.756Z,93.70
2023-02-14T14:45:27.199Z,96.70
2023-02-14T14:47:58.743Z,95.00
2023-02-14T14:50:29.766Z,92.20
2023-02-14T14:53:01.959Z,88.70
2023-02-14T14:55:40.437Z,87.80
2023-02-14T14:58:28.324Z,90.80
2023-02-14T15:00:59.291Z,94.50
2023-02-14T15:03:29.224Z,88.00
2023-02-14T15:06:11.211Z,90.00
2023-02-14T15:08:39.060Z,89.50
2023-02-14T15:11:12.181Z,93.30
2023-02-14T15:13:53.706Z,92.60
2023-02-14T15:16:40.815Z,92.00
2023-02-14T15:19:11.960Z,92.50
2023-02-14T15:21:49.209Z,90.50
2023-02-14T15:24:19.546Z,97.90
2023-02-14T15:26:53.387Z,89.10
2023-02-14T15:29:23.698Z,91.80
2023-02-14T15:31:54.737Z,89.20
2023-02-14T15:34:26.014Z,89.40
2023-02-14T15:36:57.407Z,90.70
2023-02-14T15:39:41.794Z,93.50
2023-02-14T15:42:22.696Z,91.90
2023-02-14T15:44:50.597Z,94.20
2023-02-14T15:47:18.575Z,95.80
2023-02-14T15:49:47.483Z,91.70
2023-02-14T15:52:16.217Z,90.30
2023-02-14T15:54:47.279Z,91.20
2023-02-14T15:57:23.692Z,90.40
2023-02-14T15:59:51.962Z,92.20
2023-02-14T16:02:30.030Z,95.70
2023-02-14T16:05:09.475Z,97.70
2023-02-14T16:07:37.915Z,94.20
2023-02-14T16:10:23.902Z,95.20
2023-02-14T16:13:19.606Z,98.60
2023-02-14T16:15:59.463Z,99.80
2023-02-14T16:18:38.399Z,96.70
2023-02-14T16:21:20.224Z,95.60
2023-02-14T16:24:10.561Z,95.90
2023-02-14T16:26:40.438Z,95.90
2023-02-14T16:29:11.451Z,96.10
2023-02-14T16:31:51.897Z,96.70
2023-02-14T16:34:29.484Z,97.10
2023-02-14T16:36:57.364Z,97.40
2023-02-14T16:39:28.215Z,97.80
2023-02-14T16:42:06.244Z,97.80
2023-02-14T16:44:38.467Z,97.80
2023-02-14T16:47:11.973Z,97.90
2023-02-14T16:50:05.271Z,98.10
2023-02-14T16:52:33.227Z,95.30
2023-02-14T16:55:01.097Z,97.00
2023-02-14T16:57:36.421Z,97.20
2023-02-14T17:00:15.665Z,97.70
2023-02-14T17:02:44.354Z,98.00
2023-02-14T17:05:15.405Z,98.30
2023-02-14T17:07:44.313Z,98.30
2023-02-14T17:10:18.890Z,98.10
2023-02-14T17:12:51.256Z,98.10
2023-02-14T17:15:24.421Z,98.20
2023-02-14T17:17:59.994Z,98.20
2023-02-14T17:20:34.206Z,98.30
2023-02-14T17:25:54.362Z,98.50
2023-02-14T17:28:26.524Z,98.60
2023-02-14T17:30:55.884Z,98.50
2023-02-14T17:33:24.006Z,98.30
2023-02-14T17:36:02.040Z,98.30
2023-02-14T17:38:30.984Z,98.50
2023-02-14T17:40:59.072Z,98.50
2023-02-14T17:43:27.394Z,98.50
2023-02-14T17:46:05.409Z,98.50
2023-02-14T17:48:36.234Z,98.40
2023-02-14T17:51:17.616Z,98.20
2023-02-14T17:53:45.472Z,98.00
2023-02-14T17:56:14.981Z,98.00
2023-02-14T17:58:53.222Z,98.10
2023-02-14T18:01:34.441Z,98.00
2023-02-14T18:04:02.817Z,98.10
2023-02-14T18:06:40.234Z,98.10
2023-02-14T18:09:14.335Z,98.00
2023-02-14T18:11:44.333Z,98.00
2023-02-14T18:14:15.244Z,98.10
2023-02-14T18:16:55.245Z,98.20
2023-02-14T18:19:23.134Z,97.80
2023-02-14T18:22:00.357Z,97.70
2023-02-14T18:24:28.360Z,97.70
2023-02-14T18:26:56.380Z,96.60
2023-02-14T18:29:39.499Z,96.80
2023-02-14T18:32:13.224Z,97.00
2023-02-14T18:34:43.940Z,97.10
2023-02-14T18:37:27.137Z,97.00
2023-02-14T18:39:57.758Z,97.00
2023-02-14T18:42:28.445Z,97.10
2023-02-14T18:44:59.082Z,96.90
2023-02-14T18:47:46.235Z,96.80
2023-02-14T18:53:15.147Z,96.80
2023-02-14T18:55:45.552Z,97.00
2023-02-14T18:58:13.421Z,96.80
2023-02-14T19:00:47.464Z,96.70
2023-02-14T19:03:28.963Z,96.80
2023-02-14T19:06:00.402Z,96.90
2023-02-14T19:08:38.269Z,96.80
2023-02-14T19:11:10.203Z,96.40
2023-02-14T19:13:40.497Z,96.70
2023-02-14T19:16:15.053Z,96.80
2023-02-14T19:18:44.350Z,96.70
2023-02-14T19:21:13.374Z,96.50
2023-02-14T19:23:43.655Z,96.10
2023-02-14T19:26:12.892Z,95.70
2023-02-14T19:28:41.310Z,96.30
2023-02-14T19:31:15.514Z,96.50
2023-02-14T19:33:48.022Z,96.30
2023-02-14T19:36:29.855Z,96.20
2023-02-14T19:39:04.770Z,96.10
2023-02-14T19:41:45.704Z,96.00
2023-02-14T19:44:14.851Z,95.30
2023-02-14T19:46:43.396Z,95.80
2023-02-14T19:49:17.349Z,95.80
2023-02-14T19:51:48.761Z,94.90
2023-02-14T19:54:38.588Z,95.20
2023-02-14T19:57:08.756Z,95.90
2023-02-14T19:59:52.606Z,95.20
2023-02-14T20:02:26.735Z,95.60
2023-02-14T20:04:59.258Z,95.90
2023-02-14T20:07:30.217Z,94.70
2023-02-14T20:10:00.319Z,95.90
2023-02-14T20:12:45.022Z,95.80
2023-02-14T20:15:15.324Z,94.70
2023-02-14T20:17:46.982Z,94.60
2023-02-14T20:20:53.645Z,95.80
2023-02-14T20:23:28.856Z,95.80
2023-02-14T20:25:57.017Z,94.50
2023-02-14T20:28:29.424Z,95.40
2023-02-14T20:31:07.456Z,95.10
2023-02-14T20:33:38.324Z,95.60
2023-02-14T20:36:09.647Z,95.70
2023-02-14T20:38:40.354Z,95.50
2023-02-14T20:41:09.851Z,95.30
2023-02-14T20:43:37.796Z,94.70
2023-02-14T20:46:06.606Z,94.10
2023-02-14T20:48:40.309Z,95.60
2023-02-14T20:51:13.738Z,95.60
2023-02-14T20:53:44.236Z,95.70
2023-02-14T20:56:12.538Z,94.20
2023-02-14T20:58:54.909Z,95.30
2023-02-14T21:01:24.459Z,95.30
2023-02-14T21:03:55.387Z,95.00
2023-02-14T21:06:42.820Z,94.20
2023-02-14T21:09:10.797Z,94.70
2023-02-14T21:11:41.742Z,94.60
2023-02-14T21:14:09.769Z,94.80
2023-02-14T21:16:37.613Z,94.70
2023-02-14T21:19:08.746Z,94.70
2023-02-14T21:21:55.336Z,94.60
2023-02-14T21:24:26.090Z,94.60
2023-02-14T21:26:56.588Z,94.60
2023-02-14T21:29:24.496Z,94.50
2023-02-14T21:31:55.438Z,92.50
2023-02-14T21:34:27.699Z,94.20
2023-02-14T21:36:59.688Z,94.70
2023-02-14T21:39:30.147Z,94.80
2023-02-14T21:41:58.275Z,94.90
2023-02-14T21:44:43.640Z,94.80
2023-02-14T21:47:14.630Z,94.70
2023-02-14T21:50:02.157Z,94.60
2023-02-14T21:52:36.791Z,94.40
2023-02-14T21:55:13.673Z,94.20
2023-02-14T21:57:47.736Z,94.20
2023-02-14T22:00:28.102Z,94.40
2023-02-14T22:02:58.413Z,94.10
2023-02-14T22:05:29.187Z,94.00
2023-02-14T22:08:07.628Z,93.80
2023-02-14T22:10:35.466Z,93.60
2023-02-14T22:13:09.221Z,93.40
2023-02-14T22:15:39.930Z,93.40
2023-02-14T22:18:10.284Z,93.50
2023-02-14T22:20:47.149Z,93.60
2023-02-14T22:23:24.528Z,93.60
2023-02-14T22:26:10.379Z,93.60
2023-02-14T22:28:45.101Z,93.20
2023-02-14T22:31:20.857Z,93.70
2023-02-14T22:33:53.715Z,93.60
2023-02-14T22:36:40.167Z,93.60
2023-02-14T22:39:09.524Z,93.60
2023-02-14T22:41:40.445Z,93.70
2023-02-14T22:44:11.499Z,93.80
2023-02-14T22:46:45.422Z,93.90
2023-02-14T22:49:13.391Z,93.70
2023-02-14T22:52:05.809Z,93.80
2023-02-14T22:54:42.175Z,93.80
2023-02-14T22:57:15.810Z,93.70
2023-02-14T22:59:46.448Z,94.00
2023-02-14T23:02:21.838Z,94.00
2023-02-14T23:04:57.371Z,93.90
2023-02-14T23:07:31.132Z,94.10
2023-02-14T23:10:02.706Z,94.30
2023-02-14T23:12:51.293Z,94.10
2023-02-14T23:15:37.313Z,94.40
2023-02-14T23:18:39.377Z,94.50
2023-02-14T23:21:34.300Z,94.30
2023-02-14T23:24:05.382Z,94.50
2023-02-14T23:26:40.706Z,94.50
2023-02-14T23:29:14.469Z,93.60
2023-02-14T23:31:42.467Z,94.50
2023-02-14T23:34:25.808Z,94.60
2023-02-14T23:36:53.823Z,93.40
2023-02-14T23:39:32.548Z,94.50
2023-02-14T23:42:02.406Z,94.70
2023-02-14T23:44:33.446Z,92.00
2023-02-14T23:47:06.852Z,86.50
2023-02-14T23:49:36.269Z,94.00
2023-02-14T23:52:11.577Z,93.40
2023-02-14T23:54:39.987Z,93.80
2023-02-14T23:57:10.295Z,93.80
2023-02-14T23:59:38.151Z,94.40
